sensor_id;sensor_type;location;lat;lon;timestamp;temperature;humidity
8402;DHT22;4238;48.404;9.498;2023-06-22T04:02:17;18.60;99.90
8402;DHT22;4238;48.404;9.498;2023-06-22T04:04:44;18.60;99.90
8402;DHT22;4238;48.404;9.498;2023-06-22T04:07:10;18.60;99.90
8402;DHT22;4238;48.404;9.498;2023-06-22T04:09:37;18.60;99.90
8402;DHT22;4238;48.404;9.498;2023-06-22T04:14:32;18.70;99.90
8402;DHT22;4238;48.404;9.498;2023-06-22T04:16:59;18.70;99.90
8402;DHT22;4238;48.404;9.498;2023-06-22T04:19:27;18.80;99.50
8402;DHT22;4238;48.404;9.498;2023-06-22T04:21:54;18.80;98.00
8402;DHT22;4238;48.404;9.498;2023-06-22T04:24:21;18.80;99.30
8402;DHT22;4238;48.404;9.498;2023-06-22T04:26:48;18.80;98.80
8402;DHT22;4238;48.404;9.498;2023-06-22T04:29:20;18.80;99.90
8402;DHT22;4238;48.404;9.498;2023-06-22T04:31:55;18.80;99.90
8402;DHT22;4238;48.404;9.498;2023-06-22T04:34:24;18.80;99.10
8402;DHT22;4238;48.404;9.498;2023-06-22T04:36:54;18.80;98.20
8402;DHT22;4238;48.404;9.498;2023-06-22T04:39:21;18.90;96.10
8402;DHT22;4238;48.404;9.498;2023-06-22T04:41:49;18.90;95.40
8402;DHT22;4238;48.404;9.498;2023-06-22T04:44:18;19.00;94.70
8402;DHT22;4238;48.404;9.498;2023-06-22T04:46:50;19.10;92.80
8402;DHT22;4238;48.404;9.498;2023-06-22T04:49:19;19.10;92.80
8402;DHT22;4238;48.404;9.498;2023-06-22T04:51:47;19.20;91.60
8402;DHT22;4238;48.404;9.498;2023-06-22T04:54:15;19.20;90.70
8402;DHT22;4238;48.404;9.498;2023-06-22T04:56:42;19.20;91.00
8402;DHT22;4238;48.404;9.498;2023-06-22T04:59:12;19.30;92.70
8402;DHT22;4238;48.404;9.498;2023-06-22T05:01:39;19.40;85.80
8402;DHT22;4238;48.404;9.498;2023-06-22T05:04:06;19.40;82.00
8402;DHT22;4238;48.404;9.498;2023-06-22T05:06:33;19.40;82.80
8402;DHT22;4238;48.404;9.498;2023-06-22T05:09:00;19.50;77.90
8402;DHT22;4238;48.404;9.498;2023-06-22T05:11:30;19.60;76.70
8402;DHT22;4238;48.404;9.498;2023-06-22T05:13:57;19.60;73.80
8402;DHT22;4238;48.404;9.498;2023-06-22T05:16:24;19.60;78.10
8402;DHT22;4238;48.404;9.498;2023-06-22T05:18:52;19.60;80.40
8402;DHT22;4238;48.404;9.498;2023-06-22T05:21:23;19.60;79.00
8402;DHT22;4238;48.404;9.498;2023-06-22T05:23:50;19.40;81.00
8402;DHT22;4238;48.404;9.498;2023-06-22T05:26:18;19.40;87.40
8402;DHT22;4238;48.404;9.498;2023-06-22T05:28:46;19.30;92.60
8402;DHT22;4238;48.404;9.498;2023-06-22T05:31:13;19.30;93.50
8402;DHT22;4238;48.404;9.498;2023-06-22T05:33:40;19.40;94.00
8402;DHT22;4238;48.404;9.498;2023-06-22T05:36:07;19.50;89.30
8402;DHT22;4238;48.404;9.498;2023-06-22T05:38:34;19.70;84.90
8402;DHT22;4238;48.404;9.498;2023-06-22T05:41:01;19.90;82.40
8402;DHT22;4238;48.404;9.498;2023-06-22T05:43:28;20.00;81.20
8402;DHT22;4238;48.404;9.498;2023-06-22T05:45:57;20.10;72.50
8402;DHT22;4238;48.404;9.498;2023-06-22T05:48:24;20.20;74.80
8402;DHT22;4238;48.404;9.498;2023-06-22T05:50:51;20.10;72.30
8402;DHT22;4238;48.404;9.498;2023-06-22T05:53:17;20.30;66.90
8402;DHT22;4238;48.404;9.498;2023-06-22T05:55:44;20.30;60.10
8402;DHT22;4238;48.404;9.498;2023-06-22T05:58:11;20.50;52.80
8402;DHT22;4238;48.404;9.498;2023-06-22T06:00:38;20.60;53.40
8402;DHT22;4238;48.404;9.498;2023-06-22T06:03:07;20.70;51.00
8402;DHT22;4238;48.404;9.498;2023-06-22T06:05:34;20.80;45.20
8402;DHT22;4238;48.404;9.498;2023-06-22T06:08:03;20.90;49.70
8402;DHT22;4238;48.404;9.498;2023-06-22T06:10:30;21.00;41.90
8402;DHT22;4238;48.404;9.498;2023-06-22T06:12:57;21.00;40.70
8402;DHT22;4238;48.404;9.498;2023-06-22T06:15:24;21.00;48.20
8402;DHT22;4238;48.404;9.498;2023-06-22T06:17:52;21.20;40.50
8402;DHT22;4238;48.404;9.498;2023-06-22T06:20:22;21.30;40.60
8402;DHT22;4238;48.404;9.498;2023-06-22T06:22:50;21.40;40.90
8402;DHT22;4238;48.404;9.498;2023-06-22T06:25:17;21.60;36.20
8402;DHT22;4238;48.404;9.498;2023-06-22T06:27:46;21.70;26.60
8402;DHT22;4238;48.404;9.498;2023-06-22T06:30:14;21.90;25.70
8402;DHT22;4238;48.404;9.498;2023-06-22T06:32:42;22.00;16.90
8402;DHT22;4238;48.404;9.498;2023-06-22T06:35:11;22.20;13.60
8402;DHT22;4238;48.404;9.498;2023-06-22T06:37:41;22.30;1.00
8402;DHT22;4238;48.404;9.498;2023-06-22T06:40:10;22.40;1.00
8402;DHT22;4238;48.404;9.498;2023-06-22T06:42:37;22.40;4.10
8402;DHT22;4238;48.404;9.498;2023-06-22T06:45:07;22.50;1.00
8402;DHT22;4238;48.404;9.498;2023-06-22T06:47:35;22.60;1.00
8402;DHT22;4238;48.404;9.498;2023-06-22T06:50:02;22.70;1.00
8402;DHT22;4238;48.404;9.498;2023-06-22T06:52:29;22.60;1.00
8402;DHT22;4238;48.404;9.498;2023-06-22T06:54:57;22.80;1.00
8402;DHT22;4238;48.404;9.498;2023-06-22T06:57:24;22.80;1.00
8402;DHT22;4238;48.404;9.498;2023-06-22T06:59:54;23.10;1.00
8402;DHT22;4238;48.404;9.498;2023-06-22T07:02:21;23.20;1.00
8402;DHT22;4238;48.404;9.498;2023-06-22T07:04:48;23.30;1.00
8402;DHT22;4238;48.404;9.498;2023-06-22T07:07:16;23.30;1.00
8402;DHT22;4238;48.404;9.498;2023-06-22T07:09:43;23.50;1.00
8402;DHT22;4238;48.404;9.498;2023-06-22T07:12:11;23.50;1.00
8402;DHT22;4238;48.404;9.498;2023-06-22T07:14:38;23.80;1.00
8402;DHT22;4238;48.404;9.498;2023-06-22T07:17:04;24.00;1.00
8402;DHT22;4238;48.404;9.498;2023-06-22T07:19:33;24.10;1.00
8402;DHT22;4238;48.404;9.498;2023-06-22T07:21:59;24.20;1.00
8402;DHT22;4238;48.404;9.498;2023-06-22T07:24:26;24.30;1.00
8402;DHT22;4238;48.404;9.498;2023-06-22T07:26:53;24.60;1.00
8402;DHT22;4238;48.404;9.498;2023-06-22T07:29:22;24.70;1.00
8402;DHT22;4238;48.404;9.498;2023-06-22T07:31:50;24.80;1.00
8402;DHT22;4238;48.404;9.498;2023-06-22T07:34:18;24.90;1.00
8402;DHT22;4238;48.404;9.498;2023-06-22T07:36:45;25.10;1.00
8402;DHT22;4238;48.404;9.498;2023-06-22T07:39:12;25.10;1.00
8402;DHT22;4238;48.404;9.498;2023-06-22T07:41:39;25.20;1.00
8402;DHT22;4238;48.404;9.498;2023-06-22T07:44:06;25.30;1.00
8402;DHT22;4238;48.404;9.498;2023-06-22T07:46:35;25.60;1.00
8402;DHT22;4238;48.404;9.498;2023-06-22T07:49:02;25.70;1.00
8402;DHT22;4238;48.404;9.498;2023-06-22T07:51:29;26.00;99.90
8402;DHT22;4238;48.404;9.498;2023-06-22T07:53:55;26.00;99.90
8402;DHT22;4238;48.404;9.498;2023-06-22T07:56:22;26.00;1.00
8402;DHT22;4238;48.404;9.498;2023-06-22T07:58:49;26.00;1.00
8402;DHT22;4238;48.404;9.498;2023-06-22T08:01:16;26.30;1.00
8402;DHT22;4238;48.404;9.498;2023-06-22T08:03:47;26.30;99.90
8402;DHT22;4238;48.404;9.498;2023-06-22T08:06:15;26.40;99.90
8402;DHT22;4238;48.404;9.498;2023-06-22T08:08:42;26.70;1.00
8402;DHT22;4238;48.404;9.498;2023-06-22T08:11:09;26.80;99.90
8402;DHT22;4238;48.404;9.498;2023-06-22T08:13:36;27.10;1.00
8402;DHT22;4238;48.404;9.498;2023-06-22T08:16:03;27.00;99.90
8402;DHT22;4238;48.404;9.498;2023-06-22T08:18:30;27.10;1.00
8402;DHT22;4238;48.404;9.498;2023-06-22T08:20:58;27.40;1.00
8402;DHT22;4238;48.404;9.498;2023-06-22T08:23:25;27.40;99.90
8402;DHT22;4238;48.404;9.498;2023-06-22T08:25:52;27.40;1.00
8402;DHT22;4238;48.404;9.498;2023-06-22T08:28:19;27.50;99.90
8402;DHT22;4238;48.404;9.498;2023-06-22T08:30:46;27.60;99.90
8402;DHT22;4238;48.404;9.498;2023-06-22T08:33:13;27.70;9.40
8402;DHT22;4238;48.404;9.498;2023-06-22T08:35:39;27.70;1.00
8402;DHT22;4238;48.404;9.498;2023-06-22T08:38:08;28.00;1.00
8402;DHT22;4238;48.404;9.498;2023-06-22T08:40:34;27.80;27.00
8402;DHT22;4238;48.404;9.498;2023-06-22T08:43:01;28.10;1.00
8402;DHT22;4238;48.404;9.498;2023-06-22T08:45:28;28.20;1.00
8402;DHT22;4238;48.404;9.498;2023-06-22T08:47:55;27.70;99.90
8402;DHT22;4238;48.404;9.498;2023-06-22T08:50:22;27.50;1.00
8402;DHT22;4238;48.404;9.498;2023-06-22T08:52:49;27.40;99.90
8402;DHT22;4238;48.404;9.498;2023-06-22T08:55:17;27.60;99.90
8402;DHT22;4238;48.404;9.498;2023-06-22T08:57:44;27.90;1.00
8402;DHT22;4238;48.404;9.498;2023-06-22T09:00:11;28.10;1.00
8402;DHT22;4238;48.404;9.498;2023-06-22T09:02:42;28.20;1.00
8402;DHT22;4238;48.404;9.498;2023-06-22T09:05:09;28.30;1.00
8402;DHT22;4238;48.404;9.498;2023-06-22T09:07:36;28.60;17.90
8402;DHT22;4238;48.404;9.498;2023-06-22T09:10:04;29.00;1.00
8402;DHT22;4238;48.404;9.498;2023-06-22T09:12:32;29.00;99.90
8402;DHT22;4238;48.404;9.498;2023-06-22T09:15:00;29.00;99.90
8402;DHT22;4238;48.404;9.498;2023-06-22T09:17:28;29.20;99.90
8402;DHT22;4238;48.404;9.498;2023-06-22T09:19:55;29.40;99.90
8402;DHT22;4238;48.404;9.498;2023-06-22T09:22:22;29.50;22.30
8402;DHT22;4238;48.404;9.498;2023-06-22T09:24:49;29.30;1.00
8402;DHT22;4238;48.404;9.498;2023-06-22T09:27:16;29.60;99.90
8402;DHT22;4238;48.404;9.498;2023-06-22T09:29:44;29.60;32.10
8402;DHT22;4238;48.404;9.498;2023-06-22T09:32:11;29.90;18.30
8402;DHT22;4238;48.404;9.498;2023-06-22T09:34:38;30.00;1.00
8402;DHT22;4238;48.404;9.498;2023-06-22T09:37:05;29.70;99.90
8402;DHT22;4238;48.404;9.498;2023-06-22T09:39:32;29.70;99.90
8402;DHT22;4238;48.404;9.498;2023-06-22T09:41:59;29.80;99.90
8402;DHT22;4238;48.404;9.498;2023-06-22T09:44:26;30.20;1.00
8402;DHT22;4238;48.404;9.498;2023-06-22T09:46:54;30.40;1.00
8402;DHT22;4238;48.404;9.498;2023-06-22T09:49:21;30.30;1.00
8402;DHT22;4238;48.404;9.498;2023-06-22T09:51:48;30.40;1.00
8402;DHT22;4238;48.404;9.498;2023-06-22T09:54:16;30.30;1.00
8402;DHT22;4238;48.404;9.498;2023-06-22T09:56:43;30.40;99.90
8402;DHT22;4238;48.404;9.498;2023-06-22T09:59:10;30.60;99.90
8402;DHT22;4238;48.404;9.498;2023-06-22T10:01:37;30.90;99.90
8402;DHT22;4238;48.404;9.498;2023-06-22T10:04:05;31.10;99.90
8402;DHT22;4238;48.404;9.498;2023-06-22T10:06:32;31.10;99.90
8402;DHT22;4238;48.404;9.498;2023-06-22T10:08:59;30.90;1.00
8402;DHT22;4238;48.404;9.498;2023-06-22T10:11:25;31.00;1.00
8402;DHT22;4238;48.404;9.498;2023-06-22T10:13:55;30.80;1.00
8402;DHT22;4238;48.404;9.498;2023-06-22T10:16:23;31.30;1.00
8402;DHT22;4238;48.404;9.498;2023-06-22T10:18:52;31.50;1.00
8402;DHT22;4238;48.404;9.498;2023-06-22T10:21:20;31.30;99.90
8402;DHT22;4238;48.404;9.498;2023-06-22T10:23:47;31.50;99.90
8402;DHT22;4238;48.404;9.498;2023-06-22T10:26:14;31.60;99.90
8402;DHT22;4238;48.404;9.498;2023-06-22T10:28:41;31.80;99.90
8402;DHT22;4238;48.404;9.498;2023-06-22T10:31:07;31.50;55.30
8402;DHT22;4238;48.404;9.498;2023-06-22T10:33:34;31.60;76.70
8402;DHT22;4238;48.404;9.498;2023-06-22T10:36:01;31.50;74.00
8402;DHT22;4238;48.404;9.498;2023-06-22T10:38:29;31.70;99.90
8402;DHT22;4238;48.404;9.498;2023-06-22T10:40:56;31.90;91.90
8402;DHT22;4238;48.404;9.498;2023-06-22T10:43:23;32.20;92.80
8402;DHT22;4238;48.404;9.498;2023-06-22T10:45:50;32.60;99.90
8402;DHT22;4238;48.404;9.498;2023-06-22T10:48:17;32.90;99.90
8402;DHT22;4238;48.404;9.498;2023-06-22T10:50:44;33.10;25.60
8402;DHT22;4238;48.404;9.498;2023-06-22T10:53:10;33.30;1.00
8402;DHT22;4238;48.404;9.498;2023-06-22T10:55:39;33.00;1.00
8402;DHT22;4238;48.404;9.498;2023-06-22T10:58:05;32.90;1.00
8402;DHT22;4238;48.404;9.498;2023-06-22T11:00:32;32.70;1.00
8402;DHT22;4238;48.404;9.498;2023-06-22T11:02:59;32.20;1.00
8402;DHT22;4238;48.404;9.498;2023-06-22T11:05:26;32.00;1.00
8402;DHT22;4238;48.404;9.498;2023-06-22T11:07:53;31.70;1.00
8402;DHT22;4238;48.404;9.498;2023-06-22T11:10:20;31.70;1.00
8402;DHT22;4238;48.404;9.498;2023-06-22T11:12:48;31.70;1.00
8402;DHT22;4238;48.404;9.498;2023-06-22T11:15:15;31.80;1.00
8402;DHT22;4238;48.404;9.498;2023-06-22T11:17:42;31.90;92.80
8402;DHT22;4238;48.404;9.498;2023-06-22T11:20:09;32.00;99.90
8402;DHT22;4238;48.404;9.498;2023-06-22T11:22:37;32.10;39.80
8402;DHT22;4238;48.404;9.498;2023-06-22T11:25:05;32.20;14.80
8402;DHT22;4238;48.404;9.498;2023-06-22T11:27:32;32.00;14.20
8402;DHT22;4238;48.404;9.498;2023-06-22T11:30:00;32.00;7.40
8402;DHT22;4238;48.404;9.498;2023-06-22T11:32:28;31.20;1.00
8402;DHT22;4238;48.404;9.498;2023-06-22T11:34:54;30.80;1.00
8402;DHT22;4238;48.404;9.498;2023-06-22T11:37:21;30.20;92.30
8402;DHT22;4238;48.404;9.498;2023-06-22T11:39:48;30.50;79.20
8402;DHT22;4238;48.404;9.498;2023-06-22T11:42:15;30.70;99.90
8402;DHT22;4238;48.404;9.498;2023-06-22T11:44:42;30.70;99.90
8402;DHT22;4238;48.404;9.498;2023-06-22T11:47:11;30.70;99.90
8402;DHT22;4238;48.404;9.498;2023-06-22T11:49:38;30.40;99.90
8402;DHT22;4238;48.404;9.498;2023-06-22T11:52:06;30.10;99.90
8402;DHT22;4238;48.404;9.498;2023-06-22T11:54:33;30.00;99.90
8402;DHT22;4238;48.404;9.498;2023-06-22T11:57:00;30.10;99.90
8402;DHT22;4238;48.404;9.498;2023-06-22T11:59:26;30.40;99.90
8402;DHT22;4238;48.404;9.498;2023-06-22T12:01:53;30.80;99.90
8402;DHT22;4238;48.404;9.498;2023-06-22T12:04:22;30.90;99.90
8402;DHT22;4238;48.404;9.498;2023-06-22T12:06:49;31.10;99.90
8402;DHT22;4238;48.404;9.498;2023-06-22T12:09:15;31.10;99.90
8402;DHT22;4238;48.404;9.498;2023-06-22T12:11:42;31.00;99.90
8402;DHT22;4238;48.404;9.498;2023-06-22T12:14:09;30.80;99.90
8402;DHT22;4238;48.404;9.498;2023-06-22T12:16:36;30.70;99.90
8402;DHT22;4238;48.404;9.498;2023-06-22T12:19:03;30.90;99.90
8402;DHT22;4238;48.404;9.498;2023-06-22T12:21:31;31.00;99.90
8402;DHT22;4238;48.404;9.498;2023-06-22T12:23:58;31.20;99.90
8402;DHT22;4238;48.404;9.498;2023-06-22T12:26:25;31.00;99.90
8402;DHT22;4238;48.404;9.498;2023-06-22T12:28:52;31.10;99.90
8402;DHT22;4238;48.404;9.498;2023-06-22T12:31:19;31.40;99.90
8402;DHT22;4238;48.404;9.498;2023-06-22T12:33:45;31.70;99.90
8402;DHT22;4238;48.404;9.498;2023-06-22T12:36:12;31.70;99.90
8402;DHT22;4238;48.404;9.498;2023-06-22T12:38:41;31.80;99.90
8402;DHT22;4238;48.404;9.498;2023-06-22T12:41:07;31.50;85.00
8402;DHT22;4238;48.404;9.498;2023-06-22T12:43:34;31.40;99.90
8402;DHT22;4238;48.404;9.498;2023-06-22T12:46:01;31.30;99.90
8402;DHT22;4238;48.404;9.498;2023-06-22T12:48:28;31.10;99.90
8402;DHT22;4238;48.404;9.498;2023-06-22T12:50:55;30.90;99.90
8402;DHT22;4238;48.404;9.498;2023-06-22T12:53:21;30.80;99.90
8402;DHT22;4238;48.404;9.498;2023-06-22T12:55:50;30.70;99.90
8402;DHT22;4238;48.404;9.498;2023-06-22T12:58:17;30.70;99.90
8402;DHT22;4238;48.404;9.498;2023-06-22T13:00:45;30.80;99.90
8402;DHT22;4238;48.404;9.498;2023-06-22T13:03:12;30.80;99.90
8402;DHT22;4238;48.404;9.498;2023-06-22T13:05:39;30.80;99.90
8402;DHT22;4238;48.404;9.498;2023-06-22T13:08:05;30.70;99.90
8402;DHT22;4238;48.404;9.498;2023-06-22T13:10:33;30.70;99.90
8402;DHT22;4238;48.404;9.498;2023-06-22T13:13:01;30.50;99.90
8402;DHT22;4238;48.404;9.498;2023-06-22T13:15:28;30.50;99.90
8402;DHT22;4238;48.404;9.498;2023-06-22T13:17:55;30.60;1.00
8402;DHT22;4238;48.404;9.498;2023-06-22T13:20:22;30.50;1.00
8402;DHT22;4238;48.404;9.498;2023-06-22T13:22:49;30.40;1.00
8402;DHT22;4238;48.404;9.498;2023-06-22T13:25:16;30.20;1.00
8402;DHT22;4238;48.404;9.498;2023-06-22T13:27:44;30.00;1.00
8402;DHT22;4238;48.404;9.498;2023-06-22T13:30:13;30.00;53.10
8402;DHT22;4238;48.404;9.498;2023-06-22T13:32:40;29.70;99.90
8402;DHT22;4238;48.404;9.498;2023-06-22T13:35:08;29.70;1.00
8402;DHT22;4238;48.404;9.498;2023-06-22T13:37:36;29.70;99.90
8402;DHT22;4238;48.404;9.498;2023-06-22T13:40:03;29.60;99.90
8402;DHT22;4238;48.404;9.498;2023-06-22T13:42:32;29.60;13.40
8402;DHT22;4238;48.404;9.498;2023-06-22T13:44:59;29.50;99.90
8402;DHT22;4238;48.404;9.498;2023-06-22T13:47:27;29.50;1.00
8402;DHT22;4238;48.404;9.498;2023-06-22T13:49:54;29.40;99.90
8402;DHT22;4238;48.404;9.498;2023-06-22T13:52:21;29.40;1.00
8402;DHT22;4238;48.404;9.498;2023-06-22T13:54:47;29.30;99.90
8402;DHT22;4238;48.404;9.498;2023-06-22T13:57:14;29.20;99.90
8402;DHT22;4238;48.404;9.498;2023-06-22T13:59:41;29.10;99.90
8402;DHT22;4238;48.404;9.498;2023-06-22T14:02:09;29.10;99.90
8402;DHT22;4238;48.404;9.498;2023-06-22T14:04:38;29.10;1.00
8402;DHT22;4238;48.404;9.498;2023-06-22T14:07:05;29.10;1.00
8402;DHT22;4238;48.404;9.498;2023-06-22T14:09:32;29.10;99.90
8402;DHT22;4238;48.404;9.498;2023-06-22T14:12:03;29.10;1.00
8402;DHT22;4238;48.404;9.498;2023-06-22T14:14:30;29.10;1.00
8402;DHT22;4238;48.404;9.498;2023-06-22T14:16:57;29.10;99.90
8402;DHT22;4238;48.404;9.498;2023-06-22T14:19:24;29.10;1.00
8402;DHT22;4238;48.404;9.498;2023-06-22T14:21:52;29.10;99.90
8402;DHT22;4238;48.404;9.498;2023-06-22T14:24:19;29.20;99.90
8402;DHT22;4238;48.404;9.498;2023-06-22T14:26:46;29.20;1.00
8402;DHT22;4238;48.404;9.498;2023-06-22T14:29:13;29.20;99.90
8402;DHT22;4238;48.404;9.498;2023-06-22T14:31:39;29.40;99.90
8402;DHT22;4238;48.404;9.498;2023-06-22T14:34:06;29.50;1.00
8402;DHT22;4238;48.404;9.498;2023-06-22T14:36:33;29.70;1.00
8402;DHT22;4238;48.404;9.498;2023-06-22T14:39:01;30.00;1.00
8402;DHT22;4238;48.404;9.498;2023-06-22T14:41:29;30.30;1.00
8402;DHT22;4238;48.404;9.498;2023-06-22T14:43:56;30.40;99.90
8402;DHT22;4238;48.404;9.498;2023-06-22T14:46:23;30.50;1.00
8402;DHT22;4238;48.404;9.498;2023-06-22T14:48:50;30.40;1.00
8402;DHT22;4238;48.404;9.498;2023-06-22T14:51:17;30.50;99.90
8402;DHT22;4238;48.404;9.498;2023-06-22T14:53:44;30.60;99.90
8402;DHT22;4238;48.404;9.498;2023-06-22T14:56:13;30.80;1.00
8402;DHT22;4238;48.404;9.498;2023-06-22T14:58:41;30.90;99.90
8402;DHT22;4238;48.404;9.498;2023-06-22T15:01:11;31.00;99.90
8402;DHT22;4238;48.404;9.498;2023-06-22T15:03:38;31.00;99.90
8402;DHT22;4238;48.404;9.498;2023-06-22T15:13:52;30.60;56.60
8402;DHT22;4238;48.404;9.498;2023-06-22T15:16:19;30.50;1.00
8402;DHT22;4238;48.404;9.498;2023-06-22T15:18:46;30.40;1.00
8402;DHT22;4238;48.404;9.498;2023-06-22T15:21:14;30.40;1.00
8402;DHT22;4238;48.404;9.498;2023-06-22T15:23:42;30.30;99.90
8402;DHT22;4238;48.404;9.498;2023-06-22T15:26:09;30.60;1.00
8402;DHT22;4238;48.404;9.498;2023-06-22T15:28:36;30.70;99.90
8402;DHT22;4238;48.404;9.498;2023-06-22T15:31:05;30.70;86.10
8402;DHT22;4238;48.404;9.498;2023-06-22T15:33:32;30.70;86.30
8402;DHT22;4238;48.404;9.498;2023-06-22T15:35:59;30.70;8.20
8402;DHT22;4238;48.404;9.498;2023-06-22T15:38:29;30.50;1.00
8402;DHT22;4238;48.404;9.498;2023-06-22T15:40:56;30.30;21.80
8402;DHT22;4238;48.404;9.498;2023-06-22T15:43:23;30.00;18.40
8402;DHT22;4238;48.404;9.498;2023-06-22T15:45:49;29.70;5.20
8402;DHT22;4238;48.404;9.498;2023-06-22T15:48:20;29.50;58.40
8402;DHT22;4238;48.404;9.498;2023-06-22T15:50:47;29.40;99.90
8402;DHT22;4238;48.404;9.498;2023-06-22T15:53:14;29.20;99.90
8402;DHT22;4238;48.404;9.498;2023-06-22T15:55:41;29.10;99.90
8402;DHT22;4238;48.404;9.498;2023-06-22T15:58:08;29.00;99.90
8402;DHT22;4238;48.404;9.498;2023-06-22T16:00:38;28.80;99.90
8402;DHT22;4238;48.404;9.498;2023-06-22T16:03:05;28.70;99.90
8402;DHT22;4238;48.404;9.498;2023-06-22T16:05:33;28.50;99.90
8402;DHT22;4238;48.404;9.498;2023-06-22T16:08:00;28.40;1.00
8402;DHT22;4238;48.404;9.498;2023-06-22T16:10:27;28.30;8.50
8402;DHT22;4238;48.404;9.498;2023-06-22T16:12:53;28.20;99.90
8402;DHT22;4238;48.404;9.498;2023-06-22T16:15:20;28.10;99.90
8402;DHT22;4238;48.404;9.498;2023-06-22T16:17:47;28.10;99.90
8402;DHT22;4238;48.404;9.498;2023-06-22T16:20:14;28.00;99.90
8402;DHT22;4238;48.404;9.498;2023-06-22T16:22:43;28.00;99.90
8402;DHT22;4238;48.404;9.498;2023-06-22T16:25:11;28.00;1.00
8402;DHT22;4238;48.404;9.498;2023-06-22T16:27:38;28.00;99.90
8402;DHT22;4238;48.404;9.498;2023-06-22T16:30:06;28.00;11.90
8402;DHT22;4238;48.404;9.498;2023-06-22T16:32:33;28.10;1.00
8402;DHT22;4238;48.404;9.498;2023-06-22T16:35:00;28.40;99.90
8402;DHT22;4238;48.404;9.498;2023-06-22T16:37:27;28.60;99.90
8402;DHT22;4238;48.404;9.498;2023-06-22T16:39:56;28.60;1.00
8402;DHT22;4238;48.404;9.498;2023-06-22T16:42:23;28.60;1.00
8402;DHT22;4238;48.404;9.498;2023-06-22T16:44:50;28.50;99.90
8402;DHT22;4238;48.404;9.498;2023-06-22T16:47:16;28.50;1.00
8402;DHT22;4238;48.404;9.498;2023-06-22T16:49:43;28.60;1.00
8402;DHT22;4238;48.404;9.498;2023-06-22T16:52:10;28.60;99.90
8402;DHT22;4238;48.404;9.498;2023-06-22T16:54:37;28.60;1.00
8402;DHT22;4238;48.404;9.498;2023-06-22T16:57:06;28.50;99.90
8402;DHT22;4238;48.404;9.498;2023-06-22T16:59:34;28.50;1.00
8402;DHT22;4238;48.404;9.498;2023-06-22T17:02:01;28.40;1.00
8402;DHT22;4238;48.404;9.498;2023-06-22T17:04:29;28.40;99.90
8402;DHT22;4238;48.404;9.498;2023-06-22T17:07:11;28.20;99.90
8402;DHT22;4238;48.404;9.498;2023-06-22T17:09:42;28.10;99.90
8402;DHT22;4238;48.404;9.498;2023-06-22T17:12:12;28.10;1.00
8402;DHT22;4238;48.404;9.498;2023-06-22T17:14:40;27.90;99.90
8402;DHT22;4238;48.404;9.498;2023-06-22T17:17:10;27.80;99.90
8402;DHT22;4238;48.404;9.498;2023-06-22T17:19:37;27.60;99.90
8402;DHT22;4238;48.404;9.498;2023-06-22T17:22:04;27.40;99.90
8402;DHT22;4238;48.404;9.498;2023-06-22T17:24:30;27.20;99.90
8402;DHT22;4238;48.404;9.498;2023-06-22T17:26:57;27.00;99.90
8402;DHT22;4238;48.404;9.498;2023-06-22T17:29:29;26.80;99.90
8402;DHT22;4238;48.404;9.498;2023-06-22T17:31:58;26.70;99.90
8402;DHT22;4238;48.404;9.498;2023-06-22T17:42:11;26.10;99.90
8402;DHT22;4238;48.404;9.498;2023-06-22T17:44:39;26.00;1.00
8402;DHT22;4238;48.404;9.498;2023-06-22T17:47:07;25.90;1.00
8402;DHT22;4238;48.404;9.498;2023-06-22T17:49:34;25.80;1.00
8402;DHT22;4238;48.404;9.498;2023-06-22T17:52:01;25.70;1.00
8402;DHT22;4238;48.404;9.498;2023-06-22T17:54:30;25.60;99.90
8402;DHT22;4238;48.404;9.498;2023-06-22T17:56:57;25.50;99.90
8402;DHT22;4238;48.404;9.498;2023-06-22T17:59:24;25.40;1.00
8402;DHT22;4238;48.404;9.498;2023-06-22T18:01:56;25.30;99.90
8402;DHT22;4238;48.404;9.498;2023-06-22T18:04:23;25.20;99.90
8402;DHT22;4238;48.404;9.498;2023-06-22T18:06:51;25.10;99.90
8402;DHT22;4238;48.404;9.498;2023-06-22T18:09:18;25.00;99.90
8402;DHT22;4238;48.404;9.498;2023-06-22T18:11:47;24.90;99.90
8402;DHT22;4238;48.404;9.498;2023-06-22T18:14:16;24.70;1.00
8402;DHT22;4238;48.404;9.498;2023-06-22T18:16:44;24.40;1.00
8402;DHT22;4238;48.404;9.498;2023-06-22T18:19:14;23.90;1.00
8402;DHT22;4238;48.404;9.498;2023-06-22T18:21:41;23.60;1.00
8402;DHT22;4238;48.404;9.498;2023-06-22T18:24:12;23.40;1.00
8402;DHT22;4238;48.404;9.498;2023-06-22T18:26:40;23.20;1.00
8402;DHT22;4238;48.404;9.498;2023-06-22T18:29:09;23.00;99.90
8402;DHT22;4238;48.404;9.498;2023-06-22T18:31:37;22.90;1.00
8402;DHT22;4238;48.404;9.498;2023-06-22T18:34:04;22.80;1.00
8402;DHT22;4238;48.404;9.498;2023-06-22T18:36:36;22.70;99.90
8402;DHT22;4238;48.404;9.498;2023-06-22T18:39:05;22.70;99.90
8402;DHT22;4238;48.404;9.498;2023-06-22T18:41:34;22.50;1.00
8402;DHT22;4238;48.404;9.498;2023-06-22T18:44:02;22.30;99.90
8402;DHT22;4238;48.404;9.498;2023-06-22T18:46:30;22.20;1.00
8402;DHT22;4238;48.404;9.498;2023-06-22T18:49:00;22.10;1.00
8402;DHT22;4238;48.404;9.498;2023-06-22T18:51:27;22.00;1.00
8402;DHT22;4238;48.404;9.498;2023-06-22T18:54:03;21.70;1.00
8402;DHT22;4238;48.404;9.498;2023-06-22T18:56:31;21.70;1.00
8402;DHT22;4238;48.404;9.498;2023-06-22T18:58:58;21.60;99.90
8402;DHT22;4238;48.404;9.498;2023-06-22T19:01:25;21.50;1.00
8402;DHT22;4238;48.404;9.498;2023-06-22T19:03:56;21.50;1.00
8402;DHT22;4238;48.404;9.498;2023-06-22T19:14:22;21.50;1.00
8402;DHT22;4238;48.404;9.498;2023-06-22T19:16:57;21.40;1.00
8402;DHT22;4238;48.404;9.498;2023-06-22T19:19:24;21.40;1.00
8402;DHT22;4238;48.404;9.498;2023-06-22T19:21:58;21.30;1.00
8402;DHT22;4238;48.404;9.498;2023-06-22T19:24:28;21.40;1.00
8402;DHT22;4238;48.404;9.498;2023-06-22T19:26:56;21.50;99.90
8402;DHT22;4238;48.404;9.498;2023-06-22T19:29:25;21.40;99.90
8402;DHT22;4238;48.404;9.498;2023-06-22T19:31:52;21.40;99.90
8402;DHT22;4238;48.404;9.498;2023-06-22T19:34:20;21.40;99.90
8402;DHT22;4238;48.404;9.498;2023-06-22T19:36:48;21.30;99.90
8402;DHT22;4238;48.404;9.498;2023-06-22T19:39:15;21.20;99.90
8402;DHT22;4238;48.404;9.498;2023-06-22T19:41:45;21.10;1.00
8402;DHT22;4238;48.404;9.498;2023-06-22T19:44:12;21.10;1.00
8402;DHT22;4238;48.404;9.498;2023-06-22T19:46:40;21.10;1.00
8402;DHT22;4238;48.404;9.498;2023-06-22T19:49:08;21.00;1.00
8402;DHT22;4238;48.404;9.498;2023-06-22T19:51:35;20.90;1.00
8402;DHT22;4238;48.404;9.498;2023-06-22T19:54:06;20.80;1.00
8402;DHT22;4238;48.404;9.498;2023-06-22T19:56:34;20.80;1.00
8402;DHT22;4238;48.404;9.498;2023-06-22T19:59:08;20.80;1.00
8402;DHT22;4238;48.404;9.498;2023-06-22T20:01:36;20.80;1.00
8402;DHT22;4238;48.404;9.498;2023-06-22T20:04:04;20.80;1.00
8402;DHT22;4238;48.404;9.498;2023-06-22T20:06:31;20.80;1.00
8402;DHT22;4238;48.404;9.498;2023-06-22T20:08:59;20.80;1.00
8402;DHT22;4238;48.404;9.498;2023-06-22T20:11:30;20.90;1.00
8402;DHT22;4238;48.404;9.498;2023-06-22T20:13:58;20.90;1.00
8402;DHT22;4238;48.404;9.498;2023-06-22T20:16:25;20.90;1.00
8402;DHT22;4238;48.404;9.498;2023-06-22T20:19:13;20.90;1.00
8402;DHT22;4238;48.404;9.498;2023-06-22T20:21:41;21.00;1.00
8402;DHT22;4238;48.404;9.498;2023-06-22T20:24:09;21.00;1.00
8402;DHT22;4238;48.404;9.498;2023-06-22T20:26:37;21.00;1.00
8402;DHT22;4238;48.404;9.498;2023-06-22T20:29:23;21.10;1.00
8402;DHT22;4238;48.404;9.498;2023-06-22T20:32:02;21.10;1.00
8402;DHT22;4238;48.404;9.498;2023-06-22T20:34:34;21.10;1.00
8402;DHT22;4238;48.404;9.498;2023-06-22T20:37:01;21.10;1.00